createdAt,value
2023-04-15T00:01:12.125Z,4.90
2023-04-15T00:03:39.375Z,4.90
2023-04-15T00:06:06.837Z,4.90
2023-04-15T00:08:33.623Z,4.90
2023-04-15T00:11:03.035Z,4.90
2023-04-15T00:13:30.189Z,4.90
2023-04-15T00:15:57.660Z,4.90
2023-04-15T00:18:25.466Z,4.90
2023-04-15T00:20:52.558Z,4.90
2023-04-15T00:23:19.422Z,4.90
2023-04-15T00:25:46.981Z,4.90
2023-04-15T00:28:13.877Z,4.90
2023-04-15T00:30:40.645Z,4.80
2023-04-15T00:33:07.847Z,4.80
2023-04-15T00:35:35.775Z,4.80
2023-04-15T00:38:02.788Z,4.80
2023-04-15T00:40:29.505Z,4.90
2023-04-15T00:42:56.334Z,4.90
2023-04-15T00:45:27.387Z,4.90
2023-04-15T00:47:54.290Z,4.90
2023-04-15T00:50:21.261Z,4.90
2023-04-15T00:52:48.086Z,4.90
2023-04-15T00:55:15.112Z,4.90
2023-04-15T00:57:48.711Z,4.90
2023-04-15T01:00:16.512Z,4.90
2023-04-15T01:02:43.634Z,4.90
2023-04-15T01:05:10.538Z,4.90
2023-04-15T01:07:37.413Z,4.80
2023-04-15T01:10:05.203Z,4.80
2023-04-15T01:12:34.211Z,4.80
2023-04-15T01:15:02.135Z,4.80
2023-04-15T01:17:29.563Z,4.80
2023-04-15T01:19:59.992Z,4.80
2023-04-15T01:22:28.625Z,4.80
2023-04-15T01:25:08.419Z,4.80
2023-04-15T01:27:38.733Z,4.80
2023-04-15T01:30:07.832Z,4.80
2023-04-15T01:32:34.608Z,4.80
2023-04-15T01:35:01.363Z,4.80
2023-04-15T01:37:29.000Z,4.90
2023-04-15T01:39:57.214Z,4.90
2023-04-15T01:42:24.238Z,4.90
2023-04-15T01:44:51.040Z,4.90
2023-04-15T01:47:17.796Z,4.80
2023-04-15T01:49:44.527Z,4.90
2023-04-15T01:52:11.244Z,4.80
2023-04-15T01:54:37.987Z,4.80
2023-04-15T01:57:05.463Z,4.90
2023-04-15T01:59:32.276Z,4.90
2023-04-15T02:01:59.897Z,4.90
2023-04-15T02:04:26.700Z,4.90
2023-04-15T02:06:53.706Z,4.90
2023-04-15T02:09:20.449Z,4.90
2023-04-15T02:11:47.256Z,4.90
2023-04-15T02:14:14.342Z,4.90
2023-04-15T02:16:41.163Z,4.90
2023-04-15T02:19:07.928Z,5.00
2023-04-15T02:21:35.391Z,5.00
2023-04-15T02:24:02.483Z,5.00
2023-04-15T02:26:32.020Z,5.00
2023-04-15T02:28:59.799Z,5.00
2023-04-15T02:31:26.776Z,4.90
2023-04-15T02:33:53.499Z,4.90
2023-04-15T02:36:21.263Z,4.90
2023-04-15T02:38:48.064Z,4.90
2023-04-15T02:41:14.925Z,4.90
2023-04-15T02:43:41.656Z,4.90
2023-04-15T02:46:08.464Z,4.90
2023-04-15T02:48:35.257Z,4.90
2023-04-15T02:51:20.601Z,4.90
2023-04-15T02:53:48.853Z,5.00
2023-04-15T02:56:17.029Z,5.00
2023-04-15T02:58:44.930Z,5.00
2023-04-15T03:01:12.047Z,5.00
2023-04-15T03:03:38.938Z,5.00
2023-04-15T03:06:06.041Z,4.90
2023-04-15T03:08:32.781Z,5.00
2023-04-15T03:11:00.804Z,5.00
2023-04-15T03:13:27.659Z,5.00
2023-04-15T03:15:54.549Z,4.90
2023-04-15T03:18:21.603Z,4.90
2023-04-15T03:20:48.312Z,5.00
2023-04-15T03:23:15.321Z,5.00
2023-04-15T03:25:42.288Z,5.00
2023-04-15T03:28:09.020Z,5.00
2023-04-15T03:30:35.913Z,4.90
2023-04-15T03:33:02.731Z,4.90
2023-04-15T03:35:29.752Z,4.90
2023-04-15T03:37:56.465Z,4.90
2023-04-15T03:40:23.214Z,4.90
2023-04-15T03:42:49.927Z,4.90
2023-04-15T03:45:17.020Z,4.90
2023-04-15T03:47:43.910Z,4.90
2023-04-15T03:50:10.890Z,4.90
2023-04-15T03:52:37.708Z,4.90
2023-04-15T03:55:05.197Z,4.90
2023-04-15T03:57:31.921Z,4.90
2023-04-15T03:59:58.659Z,5.00
2023-04-15T04:02:25.815Z,5.00
2023-04-15T04:04:52.709Z,5.00
2023-04-15T04:07:19.550Z,5.00
2023-04-15T04:09:47.482Z,5.00
2023-04-15T04:12:14.492Z,5.00
2023-04-15T04:14:44.300Z,4.90
2023-04-15T04:17:11.123Z,4.90
2023-04-15T04:19:37.913Z,4.90
2023-04-15T04:22:04.627Z,4.90
2023-04-15T04:24:31.628Z,4.90
2023-04-15T04:26:58.465Z,4.90
2023-04-15T04:29:25.169Z,4.90
2023-04-15T04:31:52.043Z,4.90
2023-04-15T04:34:18.826Z,5.00
2023-04-15T04:36:45.937Z,5.00
2023-04-15T04:39:12.744Z,4.90
2023-04-15T04:41:39.470Z,5.00
2023-04-15T04:44:06.294Z,5.00
2023-04-15T04:46:32.996Z,5.00
2023-04-15T04:48:59.738Z,5.00
2023-04-15T04:51:26.624Z,5.00
2023-04-15T04:53:54.264Z,5.10
2023-04-15T04:56:21.279Z,5.10
2023-04-15T04:58:48.018Z,5.10
2023-04-15T05:01:14.992Z,5.10
2023-04-15T05:03:41.939Z,5.20
2023-04-15T05:06:08.826Z,5.20
2023-04-15T05:08:36.126Z,5.30
2023-04-15T05:11:03.815Z,5.30
2023-04-15T05:13:30.531Z,5.30
2023-04-15T05:15:57.308Z,5.30
2023-04-15T05:18:24.287Z,5.40
2023-04-15T05:20:51.115Z,5.40
2023-04-15T05:23:18.338Z,5.40
2023-04-15T05:25:45.117Z,5.40
2023-04-15T05:28:12.352Z,5.50
2023-04-15T05:30:39.872Z,5.50
2023-04-15T05:33:06.784Z,5.60
2023-04-15T05:35:33.499Z,5.60
2023-04-15T05:38:00.584Z,5.60
2023-04-15T05:40:27.996Z,5.70
2023-04-15T05:42:54.741Z,5.70
2023-04-15T05:45:21.477Z,5.70
2023-04-15T05:47:50.290Z,5.70
2023-04-15T05:50:17.198Z,5.80
2023-04-15T05:52:43.954Z,5.80
2023-04-15T05:55:10.824Z,5.80
2023-04-15T05:57:37.796Z,5.80
2023-04-15T06:00:08.109Z,5.80
2023-04-15T06:02:35.144Z,5.90
2023-04-15T06:05:02.358Z,5.90
2023-04-15T06:07:29.183Z,5.90
2023-04-15T06:09:55.896Z,5.90
2023-04-15T06:12:22.618Z,6.00
2023-04-15T06:14:49.412Z,6.00
2023-04-15T06:17:18.531Z,6.00
2023-04-15T06:19:45.457Z,6.00
2023-04-15T06:22:12.165Z,6.00
2023-04-15T06:24:38.980Z,6.10
2023-04-15T06:27:05.753Z,6.10
2023-04-15T06:29:32.478Z,6.20
2023-04-15T06:31:59.240Z,6.20
2023-04-15T06:34:26.251Z,6.20
2023-04-15T06:36:54.572Z,6.20
2023-04-15T06:39:21.272Z,6.30
2023-04-15T06:41:48.051Z,6.30
2023-04-15T06:44:14.792Z,6.40
2023-04-15T06:46:41.912Z,6.90
2023-04-15T06:49:08.648Z,6.40
2023-04-15T06:51:36.299Z,6.50
2023-04-15T06:54:05.917Z,6.60
2023-04-15T06:56:33.592Z,6.70
2023-04-15T06:59:00.877Z,6.70
2023-04-15T07:01:28.274Z,6.70
2023-04-15T07:03:55.229Z,6.80
2023-04-15T07:06:22.110Z,6.80
2023-04-15T07:08:48.822Z,6.90
2023-04-15T07:11:15.575Z,6.90
2023-04-15T07:13:42.425Z,7.00
2023-04-15T07:16:09.349Z,7.00
2023-04-15T07:18:36.058Z,7.00
2023-04-15T07:21:02.901Z,7.00
2023-04-15T07:23:29.698Z,7.10
2023-04-15T07:25:56.912Z,7.10
2023-04-15T07:28:23.660Z,7.20
2023-04-15T07:30:50.469Z,7.30
2023-04-15T07:33:17.309Z,7.30
2023-04-15T07:35:45.135Z,7.40
2023-04-15T07:38:14.710Z,7.50
2023-04-15T07:40:42.722Z,7.60
2023-04-15T07:43:09.893Z,7.70
2023-04-15T07:45:36.663Z,7.80
2023-04-15T07:48:03.751Z,7.90
2023-04-15T07:50:30.551Z,7.90
2023-04-15T07:52:57.604Z,7.90
2023-04-15T07:55:25.375Z,7.80
2023-04-15T07:57:52.859Z,7.70
2023-04-15T08:00:20.120Z,7.70
2023-04-15T08:02:48.379Z,7.60
2023-04-15T08:05:15.795Z,7.60
2023-04-15T08:07:42.533Z,7.60
2023-04-15T08:10:09.960Z,7.60
2023-04-15T08:12:37.076Z,7.60
2023-04-15T08:15:04.600Z,7.60
2023-04-15T08:17:31.374Z,7.70
2023-04-15T08:19:58.133Z,7.80
2023-04-15T08:22:24.910Z,7.80
2023-04-15T08:24:51.938Z,7.70
2023-04-15T08:27:19.689Z,7.80
2023-04-15T08:29:47.083Z,7.70
2023-04-15T08:32:13.852Z,7.70
2023-04-15T08:34:40.636Z,7.70
2023-04-15T08:37:07.422Z,7.60
2023-04-15T08:39:34.173Z,7.50
2023-04-15T08:42:03.602Z,7.50
2023-04-15T08:44:36.436Z,7.40
2023-04-15T08:47:07.641Z,7.40
2023-04-15T08:49:40.198Z,7.40
2023-04-15T08:52:07.956Z,7.40
2023-04-15T08:54:36.658Z,7.40
2023-04-15T08:57:04.044Z,7.40
2023-04-15T08:59:31.666Z,7.30
2023-04-15T09:01:58.991Z,7.40
2023-04-15T09:04:25.853Z,7.40
2023-04-15T09:06:52.660Z,7.50
2023-04-15T09:09:19.404Z,7.60
2023-04-15T09:11:46.472Z,7.70
2023-04-15T09:14:13.408Z,7.80
2023-04-15T09:17:03.303Z,7.90
2023-04-15T09:19:31.533Z,7.90
2023-04-15T09:21:59.612Z,8.00
2023-04-15T09:24:40.914Z,8.10
2023-04-15T09:27:07.815Z,8.20
2023-04-15T09:29:34.695Z,8.30
2023-04-15T09:32:15.858Z,8.40
2023-04-15T09:34:43.593Z,8.50
2023-04-15T09:37:11.102Z,8.50
2023-04-15T09:39:52.083Z,8.50
2023-04-15T09:42:26.613Z,8.60
2023-04-15T09:44:53.575Z,8.60
2023-04-15T09:47:32.053Z,8.50
2023-04-15T09:50:00.972Z,8.50
2023-04-15T09:52:28.596Z,8.50
2023-04-15T09:54:58.757Z,8.40
2023-04-15T09:57:25.718Z,8.40
2023-04-15T09:59:52.542Z,8.30
2023-04-15T10:02:24.087Z,8.10
2023-04-15T10:04:52.590Z,8.00
2023-04-15T10:07:22.339Z,8.00
2023-04-15T10:09:49.591Z,7.90
2023-04-15T10:12:18.565Z,8.00
2023-04-15T10:14:56.229Z,8.00
2023-04-15T10:17:24.440Z,8.00
2023-04-15T10:19:54.937Z,7.90
2023-04-15T10:22:26.336Z,7.80
2023-04-15T10:24:53.632Z,7.70
2023-04-15T10:27:22.020Z,7.60
2023-04-15T10:29:50.937Z,7.50
2023-04-15T10:32:23.532Z,7.50
2023-04-15T10:34:54.314Z,7.40
2023-04-15T10:37:39.485Z,7.40
2023-04-15T10:40:32.427Z,7.40
2023-04-15T10:43:03.216Z,7.40
2023-04-15T10:45:37.727Z,7.40
2023-04-15T10:48:08.250Z,7.40
2023-04-15T10:50:37.685Z,7.30
2023-04-15T10:53:05.233Z,7.30
2023-04-15T10:55:34.391Z,7.40
2023-04-15T10:58:02.412Z,7.40
2023-04-15T11:00:31.725Z,7.50
2023-04-15T11:03:09.682Z,7.50
2023-04-15T11:05:42.440Z,7.70
2023-04-15T11:08:11.110Z,7.90
2023-04-15T11:10:37.791Z,8.10
2023-04-15T11:13:16.572Z,8.30
2023-04-15T11:15:48.425Z,8.60
2023-04-15T11:18:20.871Z,8.60
2023-04-15T11:20:51.679Z,8.70
2023-04-15T11:23:27.458Z,8.70
2023-04-15T11:25:59.811Z,8.70
2023-04-15T11:28:30.311Z,8.60
2023-04-15T11:30:58.728Z,8.50
2023-04-15T11:33:25.950Z,8.40
2023-04-15T11:35:56.878Z,8.30
2023-04-15T11:38:23.676Z,8.20
2023-04-15T11:40:52.176Z,8.20
2023-04-15T11:43:23.057Z,8.20
2023-04-15T11:46:02.507Z,8.10
2023-04-15T11:48:46.528Z,8.20
2023-04-15T11:51:14.800Z,8.20
2023-04-15T11:53:50.730Z,8.40
2023-04-15T11:56:23.306Z,8.60
2023-04-15T11:59:01.207Z,8.80
2023-04-15T12:01:42.187Z,8.80
2023-04-15T12:04:14.998Z,8.80
2023-04-15T12:06:42.065Z,8.70
2023-04-15T12:09:14.668Z,8.50
2023-04-15T12:11:58.223Z,8.40
2023-04-15T12:14:31.066Z,8.40
2023-04-15T12:17:01.388Z,8.40
2023-04-15T12:19:37.667Z,8.50
2023-04-15T12:22:16.659Z,8.60
2023-04-15T12:24:48.887Z,8.70
2023-04-15T12:27:17.236Z,8.80
2023-04-15T12:29:44.532Z,8.80
2023-04-15T12:32:15.785Z,8.80
2023-04-15T12:34:57.166Z,8.80
2023-04-15T12:37:24.023Z,8.70
2023-04-15T12:39:51.799Z,8.70
2023-04-15T12:42:19.111Z,8.70
2023-04-15T12:44:46.797Z,8.60
2023-04-15T12:47:13.994Z,8.50
2023-04-15T12:49:41.119Z,8.50
2023-04-15T12:52:08.336Z,8.40
2023-04-15T12:54:36.048Z,8.30
2023-04-15T12:57:05.995Z,8.40
2023-04-15T12:59:34.055Z,8.50
2023-04-15T13:02:01.099Z,8.60
2023-04-15T13:04:30.655Z,8.90
2023-04-15T13:06:57.727Z,9.10
2023-04-15T13:09:24.535Z,9.20
2023-04-15T13:11:51.315Z,9.30
2023-04-15T13:14:18.041Z,9.40
2023-04-15T13:16:44.839Z,9.40
2023-04-15T13:19:11.568Z,9.40
2023-04-15T13:21:38.299Z,9.30
2023-04-15T13:24:07.079Z,9.20
2023-04-15T13:26:34.125Z,9.20
2023-04-15T13:29:01.825Z,9.10
2023-04-15T13:31:28.743Z,9.10
2023-04-15T13:33:57.328Z,9.10
2023-04-15T13:36:24.161Z,9.20
2023-04-15T13:38:51.686Z,9.30
2023-04-15T13:41:18.740Z,9.40
2023-04-15T13:43:45.536Z,9.50
2023-04-15T13:46:12.541Z,9.50
2023-04-15T13:48:39.434Z,9.40
2023-04-15T13:51:06.281Z,9.30
2023-04-15T13:53:38.415Z,9.20
2023-04-15T13:56:08.239Z,9.00
2023-04-15T13:58:36.479Z,8.90
2023-04-15T14:01:05.735Z,8.90
2023-04-15T14:03:35.148Z,8.80
2023-04-15T14:06:02.273Z,8.80
2023-04-15T14:08:30.966Z,8.80
2023-04-15T14:10:57.740Z,8.70
2023-04-15T14:13:24.824Z,8.70
2023-04-15T14:15:51.638Z,8.80
2023-04-15T14:18:18.390Z,8.80
2023-04-15T14:20:45.132Z,8.90
2023-04-15T14:23:11.852Z,8.90
2023-04-15T14:25:41.248Z,8.90
2023-04-15T14:28:14.677Z,8.90
2023-04-15T14:30:41.290Z,8.90
2023-04-15T14:33:07.930Z,8.80
2023-04-15T14:35:34.664Z,8.80
2023-04-15T14:38:01.276Z,8.80
2023-04-15T14:40:27.928Z,8.70
2023-04-15T14:42:54.561Z,8.70
2023-04-15T14:45:21.230Z,8.60
2023-04-15T14:47:48.225Z,8.50
2023-04-15T14:50:14.929Z,8.50
2023-04-15T14:52:41.551Z,8.40
2023-04-15T14:55:10.290Z,8.40
2023-04-15T14:57:41.333Z,8.40
2023-04-15T15:00:09.913Z,8.40
2023-04-15T15:02:40.490Z,8.30
2023-04-15T15:05:08.711Z,8.30
2023-04-15T15:07:36.989Z,8.30
2023-04-15T15:10:04.550Z,8.30
2023-04-15T15:12:32.080Z,8.20
2023-04-15T15:14:58.719Z,8.20
2023-04-15T15:17:25.649Z,8.20
2023-04-15T15:19:52.373Z,8.10
2023-04-15T15:22:20.840Z,8.20
2023-04-15T15:24:48.200Z,8.20
2023-04-15T15:27:14.950Z,8.20
2023-04-15T15:29:41.603Z,8.20
2023-04-15T15:32:08.238Z,8.20
2023-04-15T15:34:34.943Z,8.20
2023-04-15T15:37:01.722Z,8.20
2023-04-15T15:39:28.444Z,8.20
2023-04-15T15:41:55.207Z,8.30
2023-04-15T15:44:21.898Z,8.30
2023-04-15T15:46:49.952Z,8.30
2023-04-15T15:49:16.803Z,8.30
2023-04-15T15:51:43.514Z,8.30
2023-04-15T15:54:10.324Z,8.30
2023-04-15T15:56:38.356Z,8.20
2023-04-15T15:59:05.241Z,8.20
2023-04-15T16:01:32.093Z,8.20
2023-04-15T16:03:59.431Z,8.10
2023-04-15T16:06:26.537Z,8.10
2023-04-15T16:08:53.208Z,8.10
2023-04-15T16:11:19.869Z,8.10
2023-04-15T16:13:46.685Z,8.10
2023-04-15T16:16:13.339Z,8.10
2023-04-15T16:18:39.970Z,8.00
2023-04-15T16:21:06.619Z,8.00
2023-04-15T16:23:33.421Z,8.00
2023-04-15T16:26:00.116Z,8.00
2023-04-15T16:28:27.435Z,8.00
2023-04-15T16:30:55.261Z,7.90
2023-04-15T16:33:22.058Z,7.90
2023-04-15T16:35:48.752Z,7.90
2023-04-15T16:38:15.519Z,7.90
2023-04-15T16:40:42.375Z,7.90
2023-04-15T16:43:11.109Z,7.80
2023-04-15T16:45:37.962Z,7.80
2023-04-15T16:48:04.866Z,7.80
2023-04-15T16:50:31.629Z,7.80
2023-04-15T16:52:58.244Z,7.80
2023-04-15T16:55:27.008Z,7.80
2023-04-15T16:58:03.346Z,7.80
2023-04-15T17:00:32.101Z,7.70
2023-04-15T17:03:00.340Z,7.70
2023-04-15T17:05:35.446Z,7.60
2023-04-15T17:08:02.203Z,7.60
2023-04-15T17:10:29.035Z,7.60
2023-04-15T17:12:57.212Z,7.60
2023-04-15T17:15:24.352Z,7.60
2023-04-15T17:17:51.045Z,7.60
2023-04-15T17:20:17.819Z,7.60
2023-04-15T17:22:45.031Z,7.60
2023-04-15T17:25:12.737Z,7.60
2023-04-15T17:27:39.337Z,7.60
2023-04-15T17:30:07.516Z,7.50
2023-04-15T17:32:34.900Z,7.50
2023-04-15T17:35:05.472Z,7.50
2023-04-15T17:37:33.398Z,7.50
2023-04-15T17:40:00.146Z,7.50
2023-04-15T17:42:26.956Z,7.50
2023-04-15T17:44:53.778Z,7.50
2023-04-15T17:47:20.676Z,7.50
2023-04-15T17:49:47.640Z,7.50
2023-04-15T17:52:14.619Z,7.50
2023-04-15T17:54:41.306Z,7.50
2023-04-15T17:57:08.843Z,7.50
2023-04-15T17:59:35.624Z,7.50
2023-04-15T18:02:02.439Z,7.40
2023-04-15T18:04:32.012Z,7.40
2023-04-15T18:06:58.808Z,7.90
2023-04-15T18:09:25.701Z,7.40
2023-04-15T18:11:52.354Z,7.40
2023-04-15T18:14:33.020Z,7.40
2023-04-15T18:17:01.208Z,7.40
2023-04-15T18:19:27.926Z,7.40
2023-04-15T18:21:54.603Z,7.40
2023-04-15T18:24:21.802Z,7.40
2023-04-15T18:26:49.334Z,7.40
2023-04-15T18:29:16.271Z,7.40
2023-04-15T18:31:42.990Z,7.40
2023-04-15T18:34:10.082Z,7.40
2023-04-15T18:36:36.797Z,7.40
2023-04-15T18:39:04.277Z,7.40
2023-04-15T18:41:31.189Z,7.40
2023-04-15T18:43:57.806Z,7.40
2023-04-15T18:46:24.551Z,7.40
2023-04-15T18:48:51.196Z,7.40
2023-04-15T18:51:17.842Z,7.40
2023-04-15T18:53:44.598Z,7.40
2023-04-15T18:56:11.361Z,7.40
2023-04-15T18:59:08.991Z,7.40
2023-04-15T19:01:24.596Z,7.40
2023-04-15T19:03:51.328Z,7.40
2023-04-15T19:06:18.204Z,7.40
2023-04-15T19:08:44.816Z,7.40
2023-04-15T19:11:11.477Z,7.40
2023-04-15T19:13:38.176Z,7.40
2023-04-15T19:16:05.035Z,7.40
2023-04-15T19:18:31.690Z,7.40
2023-04-15T19:20:58.506Z,7.40
2023-04-15T19:23:25.218Z,7.40
2023-04-15T19:25:51.922Z,7.40
2023-04-15T19:28:18.559Z,7.30
2023-04-15T19:30:45.229Z,7.40
2023-04-15T19:33:12.424Z,7.30
2023-04-15T19:35:40.767Z,7.40
2023-04-15T19:38:07.431Z,7.40
2023-04-15T19:40:34.073Z,7.40
2023-04-15T19:43:00.983Z,7.40
2023-04-15T19:45:27.689Z,7.30
2023-04-15T19:47:54.507Z,7.40
2023-04-15T19:50:25.756Z,7.40
2023-04-15T19:52:52.901Z,7.40
2023-04-15T19:55:19.771Z,7.40
2023-04-15T19:57:46.411Z,7.40
2023-04-15T20:00:13.497Z,7.30
2023-04-15T20:02:40.449Z,7.40
2023-04-15T20:05:09.905Z,7.30
2023-04-15T20:07:37.038Z,7.30
2023-04-15T20:10:12.461Z,7.30
2023-04-15T20:12:50.222Z,7.30
2023-04-15T20:15:19.442Z,7.30
2023-04-15T20:17:46.180Z,7.40
2023-04-15T20:20:13.082Z,7.40
2023-04-15T20:22:39.783Z,7.40
2023-04-15T20:25:09.780Z,7.40
2023-04-15T20:27:36.391Z,7.40
2023-04-15T20:30:04.810Z,7.40
2023-04-15T20:32:38.661Z,7.30
2023-04-15T20:35:06.707Z,7.30
2023-04-15T20:37:33.934Z,7.30
2023-04-15T20:40:01.437Z,7.30
2023-04-15T20:42:31.778Z,7.30
2023-04-15T20:44:58.390Z,7.30
2023-04-15T20:47:25.171Z,7.30
2023-04-15T20:49:51.943Z,7.30
2023-04-15T20:52:18.536Z,7.30
2023-04-15T20:54:48.229Z,7.30
2023-04-15T20:57:14.943Z,7.60
2023-04-15T20:59:41.566Z,7.30
2023-04-15T21:02:08.283Z,7.30
2023-04-15T21:04:35.767Z,7.30
2023-04-15T21:07:02.348Z,7.30
2023-04-15T21:09:28.993Z,7.30
2023-04-15T21:12:00.365Z,7.30
2023-04-15T21:14:28.173Z,7.30
2023-04-15T21:16:54.940Z,7.20
2023-04-15T21:19:21.621Z,7.30
2023-04-15T21:21:48.299Z,7.30
2023-04-15T21:24:14.935Z,7.20
2023-04-15T21:26:41.600Z,7.20
2023-04-15T21:29:11.459Z,7.20
2023-04-15T21:31:38.714Z,7.20
2023-04-15T21:34:05.667Z,7.20
2023-04-15T21:36:33.727Z,7.30
2023-04-15T21:39:00.758Z,7.30
2023-04-15T21:41:27.365Z,7.20
2023-04-15T21:43:54.076Z,7.20
2023-04-15T21:46:22.778Z,7.20
2023-04-15T21:48:54.944Z,7.20
2023-04-15T21:51:21.589Z,7.20
2023-04-15T21:53:48.278Z,7.20
2023-04-15T21:56:14.918Z,7.30
2023-04-15T21:58:41.570Z,7.30
2023-04-15T22:01:08.311Z,7.30
2023-04-15T22:03:35.386Z,7.30
2023-04-15T22:06:03.421Z,7.30
2023-04-15T22:08:35.750Z,7.30
2023-04-15T22:11:09.005Z,7.30
2023-04-15T22:13:35.934Z,7.30
2023-04-15T22:16:02.946Z,7.20
2023-04-15T22:18:29.548Z,7.30
2023-04-15T22:20:56.249Z,7.30
2023-04-15T22:23:22.899Z,7.30
2023-04-15T22:25:49.549Z,7.30
2023-04-15T22:28:16.303Z,7.30
2023-04-15T22:30:43.030Z,7.20
2023-04-15T22:33:10.217Z,7.30
2023-04-15T22:35:37.181Z,7.30
2023-04-15T22:38:04.877Z,7.20
2023-04-15T22:40:31.725Z,7.30
2023-04-15T22:42:58.394Z,7.30
2023-04-15T22:45:25.006Z,7.30
2023-04-15T22:47:51.764Z,7.30
2023-04-15T22:50:18.448Z,7.30
2023-04-15T22:52:46.560Z,7.30
2023-04-15T22:55:13.292Z,7.30
2023-04-15T22:57:39.952Z,7.30
2023-04-15T23:00:07.446Z,7.30
2023-04-15T23:02:34.749Z,7.30
2023-04-15T23:05:04.182Z,7.30
2023-04-15T23:07:39.093Z,7.30
2023-04-15T23:10:06.380Z,7.30
2023-04-15T23:12:33.012Z,7.30
2023-04-15T23:14:59.623Z,7.30
2023-04-15T23:17:26.526Z,7.30
2023-04-15T23:19:53.275Z,7.30
2023-04-15T23:22:19.916Z,7.30
2023-04-15T23:24:46.604Z,7.30
2023-04-15T23:27:13.233Z,7.30
2023-04-15T23:29:39.903Z,7.40
2023-04-15T23:32:06.840Z,7.40
2023-04-15T23:34:33.492Z,7.40
2023-04-15T23:37:00.131Z,7.40
2023-04-15T23:39:26.992Z,7.40
2023-04-15T23:41:53.736Z,7.40
2023-04-15T23:44:20.403Z,7.40
2023-04-15T23:46:47.110Z,7.30
2023-04-15T23:49:13.783Z,7.40
2023-04-15T23:51:40.804Z,7.40
2023-04-15T23:54:07.406Z,7.40
2023-04-15T23:56:34.192Z,7.40
2023-04-15T23:59:00.814Z,7.30
